sensor_id;sensor_type;location;lat;lon;timestamp;P1;durP1;ratioP1;P2;durP2;ratioP2
62479;SDS011;48526;48.846;2.322;2023-05-28T00:01:56;7.00;;;7.00;;
62479;SDS011;48526;48.846;2.322;2023-05-28T00:04:22;13.75;;;10.50;;
62479;SDS011;48526;48.846;2.322;2023-05-28T00:06:49;9.75;;;9.00;;
62479;SDS011;48526;48.846;2.322;2023-05-28T00:09:18;10.75;;;7.75;;
62479;SDS011;48526;48.846;2.322;2023-05-28T00:11:44;9.75;;;7.75;;
62479;SDS011;48526;48.846;2.322;2023-05-28T00:14:09;10.75;;;8.00;;
62479;SDS011;48526;48.846;2.322;2023-05-28T00:16:35;13.75;;;9.75;;
62479;SDS011;48526;48.846;2.322;2023-05-28T00:19:02;10.00;;;8.00;;
62479;SDS011;48526;48.846;2.322;2023-05-28T00:21:28;14.25;;;10.00;;
62479;SDS011;48526;48.846;2.322;2023-05-28T00:23:54;11.75;;;8.75;;
62479;SDS011;48526;48.846;2.322;2023-05-28T00:26:22;14.75;;;9.25;;
62479;SDS011;48526;48.846;2.322;2023-05-28T00:28:47;11.50;;;9.25;;
62479;SDS011;48526;48.846;2.322;2023-05-28T00:31:13;12.50;;;10.50;;
62479;SDS011;48526;48.846;2.322;2023-05-28T00:33:38;11.50;;;9.00;;
62479;SDS011;48526;48.846;2.322;2023-05-28T00:36:04;11.00;;;10.25;;
62479;SDS011;48526;48.846;2.322;2023-05-28T00:38:29;12.25;;;11.25;;
62479;SDS011;48526;48.846;2.322;2023-05-28T00:40:54;15.50;;;11.00;;
62479;SDS011;48526;48.846;2.322;2023-05-28T00:43:20;12.50;;;10.00;;
62479;SDS011;48526;48.846;2.322;2023-05-28T00:45:46;11.00;;;9.00;;
62479;SDS011;48526;48.846;2.322;2023-05-28T00:48:13;13.25;;;11.00;;
62479;SDS011;48526;48.846;2.322;2023-05-28T00:50:39;10.25;;;9.75;;
62479;SDS011;48526;48.846;2.322;2023-05-28T00:53:05;11.25;;;10.25;;
62479;SDS011;48526;48.846;2.322;2023-05-28T00:55:30;16.25;;;12.00;;
62479;SDS011;48526;48.846;2.322;2023-05-28T00:57:56;12.25;;;11.25;;
62479;SDS011;48526;48.846;2.322;2023-05-28T01:00:28;14.50;;;11.00;;
62479;SDS011;48526;48.846;2.322;2023-05-28T01:02:54;10.25;;;8.00;;
62479;SDS011;48526;48.846;2.322;2023-05-28T01:05:20;12.00;;;12.00;;
62479;SDS011;48526;48.846;2.322;2023-05-28T01:07:46;19.00;;;13.00;;
62479;SDS011;48526;48.846;2.322;2023-05-28T01:10:11;14.00;;;12.00;;
62479;SDS011;48526;48.846;2.322;2023-05-28T01:12:37;17.00;;;11.25;;
62479;SDS011;48526;48.846;2.322;2023-05-28T01:15:03;17.75;;;12.75;;
62479;SDS011;48526;48.846;2.322;2023-05-28T01:17:29;13.50;;;11.00;;
62479;SDS011;48526;48.846;2.322;2023-05-28T01:19:55;20.75;;;14.00;;
62479;SDS011;48526;48.846;2.322;2023-05-28T01:22:21;13.50;;;11.75;;
62479;SDS011;48526;48.846;2.322;2023-05-28T01:24:52;16.25;;;11.25;;
62479;SDS011;48526;48.846;2.322;2023-05-28T01:27:18;11.75;;;10.25;;
62479;SDS011;48526;48.846;2.322;2023-05-28T01:29:44;14.50;;;14.00;;
62479;SDS011;48526;48.846;2.322;2023-05-28T01:32:10;16.25;;;13.00;;
62479;SDS011;48526;48.846;2.322;2023-05-28T01:34:35;12.50;;;10.00;;
62479;SDS011;48526;48.846;2.322;2023-05-28T01:37:01;16.00;;;13.50;;
62479;SDS011;48526;48.846;2.322;2023-05-28T01:39:30;17.00;;;11.50;;
62479;SDS011;48526;48.846;2.322;2023-05-28T01:42:03;18.75;;;15.50;;
62479;SDS011;48526;48.846;2.322;2023-05-28T01:44:30;13.75;;;12.00;;
62479;SDS011;48526;48.846;2.322;2023-05-28T01:46:56;13.50;;;12.50;;
62479;SDS011;48526;48.846;2.322;2023-05-28T01:49:21;17.75;;;15.75;;
62479;SDS011;48526;48.846;2.322;2023-05-28T01:51:47;16.25;;;13.75;;
62479;SDS011;48526;48.846;2.322;2023-05-28T01:54:13;18.75;;;14.75;;
62479;SDS011;48526;48.846;2.322;2023-05-28T01:56:38;17.25;;;12.00;;
62479;SDS011;48526;48.846;2.322;2023-05-28T01:59:03;17.25;;;15.00;;
62479;SDS011;48526;48.846;2.322;2023-05-28T02:01:29;16.75;;;15.00;;
62479;SDS011;48526;48.846;2.322;2023-05-28T02:03:56;18.25;;;14.75;;
62479;SDS011;48526;48.846;2.322;2023-05-28T02:06:22;14.25;;;11.75;;
62479;SDS011;48526;48.846;2.322;2023-05-28T02:08:49;15.25;;;13.25;;
62479;SDS011;48526;48.846;2.322;2023-05-28T02:11:14;19.75;;;15.50;;
62479;SDS011;48526;48.846;2.322;2023-05-28T02:13:40;15.00;;;14.50;;
62479;SDS011;48526;48.846;2.322;2023-05-28T02:16:06;17.00;;;11.25;;
62479;SDS011;48526;48.846;2.322;2023-05-28T02:18:32;20.25;;;14.75;;
62479;SDS011;48526;48.846;2.322;2023-05-28T02:20:57;19.00;;;16.00;;
62479;SDS011;48526;48.846;2.322;2023-05-28T02:23:23;16.00;;;14.50;;
62479;SDS011;48526;48.846;2.322;2023-05-28T02:25:48;19.25;;;15.50;;
62479;SDS011;48526;48.846;2.322;2023-05-28T02:28:14;17.75;;;14.75;;
62479;SDS011;48526;48.846;2.322;2023-05-28T02:30:39;14.50;;;14.00;;
62479;SDS011;48526;48.846;2.322;2023-05-28T02:33:05;18.00;;;15.25;;
62479;SDS011;48526;48.846;2.322;2023-05-28T02:35:30;17.50;;;14.00;;
62479;SDS011;48526;48.846;2.322;2023-05-28T02:37:56;16.25;;;15.00;;
62479;SDS011;48526;48.846;2.322;2023-05-28T02:40:21;16.50;;;14.75;;
62479;SDS011;48526;48.846;2.322;2023-05-28T02:42:47;14.75;;;13.25;;
62479;SDS011;48526;48.846;2.322;2023-05-28T02:45:12;17.00;;;14.00;;
62479;SDS011;48526;48.846;2.322;2023-05-28T02:47:38;16.25;;;14.50;;
62479;SDS011;48526;48.846;2.322;2023-05-28T02:50:04;17.50;;;16.50;;
62479;SDS011;48526;48.846;2.322;2023-05-28T02:52:30;16.75;;;13.75;;
62479;SDS011;48526;48.846;2.322;2023-05-28T02:54:55;20.50;;;16.00;;
62479;SDS011;48526;48.846;2.322;2023-05-28T02:57:20;14.75;;;12.50;;
62479;SDS011;48526;48.846;2.322;2023-05-28T02:59:46;18.50;;;16.00;;
62479;SDS011;48526;48.846;2.322;2023-05-28T03:02:12;16.50;;;14.75;;
62479;SDS011;48526;48.846;2.322;2023-05-28T03:04:37;18.50;;;14.75;;
62479;SDS011;48526;48.846;2.322;2023-05-28T03:07:02;15.25;;;13.00;;
62479;SDS011;48526;48.846;2.322;2023-05-28T03:09:28;17.00;;;16.00;;
62479;SDS011;48526;48.846;2.322;2023-05-28T03:11:53;16.75;;;14.50;;
62479;SDS011;48526;48.846;2.322;2023-05-28T03:14:18;21.75;;;15.50;;
62479;SDS011;48526;48.846;2.322;2023-05-28T03:16:44;16.75;;;14.75;;
62479;SDS011;48526;48.846;2.322;2023-05-28T03:19:09;15.25;;;12.25;;
62479;SDS011;48526;48.846;2.322;2023-05-28T03:21:35;16.25;;;15.00;;
62479;SDS011;48526;48.846;2.322;2023-05-28T03:24:00;19.25;;;14.75;;
62479;SDS011;48526;48.846;2.322;2023-05-28T03:26:26;18.00;;;16.25;;
62479;SDS011;48526;48.846;2.322;2023-05-28T03:28:51;21.00;;;17.25;;
62479;SDS011;48526;48.846;2.322;2023-05-28T03:31:16;19.75;;;17.00;;
62479;SDS011;48526;48.846;2.322;2023-05-28T03:33:42;23.00;;;16.75;;
62479;SDS011;48526;48.846;2.322;2023-05-28T03:36:07;18.00;;;15.00;;
62479;SDS011;48526;48.846;2.322;2023-05-28T03:38:33;16.75;;;15.75;;
62479;SDS011;48526;48.846;2.322;2023-05-28T03:40:58;19.00;;;15.75;;
62479;SDS011;48526;48.846;2.322;2023-05-28T03:43:24;14.75;;;14.50;;
62479;SDS011;48526;48.846;2.322;2023-05-28T03:45:50;16.00;;;12.75;;
62479;SDS011;48526;48.846;2.322;2023-05-28T03:48:15;18.25;;;16.25;;
62479;SDS011;48526;48.846;2.322;2023-05-28T03:50:41;21.75;;;15.00;;
62479;SDS011;48526;48.846;2.322;2023-05-28T03:53:06;21.00;;;15.75;;
62479;SDS011;48526;48.846;2.322;2023-05-28T03:55:32;19.00;;;16.00;;
62479;SDS011;48526;48.846;2.322;2023-05-28T03:57:58;17.75;;;13.75;;
62479;SDS011;48526;48.846;2.322;2023-05-28T04:00:23;16.50;;;14.75;;
62479;SDS011;48526;48.846;2.322;2023-05-28T04:02:49;16.00;;;15.25;;
62479;SDS011;48526;48.846;2.322;2023-05-28T04:05:18;14.25;;;13.50;;
62479;SDS011;48526;48.846;2.322;2023-05-28T04:07:43;20.75;;;14.75;;
62479;SDS011;48526;48.846;2.322;2023-05-28T04:10:09;21.25;;;17.75;;
62479;SDS011;48526;48.846;2.322;2023-05-28T04:12:34;20.50;;;16.00;;
62479;SDS011;48526;48.846;2.322;2023-05-28T04:15:00;22.00;;;15.00;;
62479;SDS011;48526;48.846;2.322;2023-05-28T04:17:25;16.75;;;14.75;;
62479;SDS011;48526;48.846;2.322;2023-05-28T04:19:52;15.50;;;15.50;;
62479;SDS011;48526;48.846;2.322;2023-05-28T04:22:18;20.25;;;16.75;;
62479;SDS011;48526;48.846;2.322;2023-05-28T04:24:44;18.75;;;16.00;;
62479;SDS011;48526;48.846;2.322;2023-05-28T04:27:10;19.25;;;17.25;;
62479;SDS011;48526;48.846;2.322;2023-05-28T04:29:36;18.25;;;17.00;;
62479;SDS011;48526;48.846;2.322;2023-05-28T04:32:01;19.00;;;16.25;;
62479;SDS011;48526;48.846;2.322;2023-05-28T04:34:29;18.25;;;17.25;;
62479;SDS011;48526;48.846;2.322;2023-05-28T04:36:54;20.25;;;17.00;;
62479;SDS011;48526;48.846;2.322;2023-05-28T04:39:21;20.75;;;16.00;;
62479;SDS011;48526;48.846;2.322;2023-05-28T04:41:47;19.25;;;17.50;;
62479;SDS011;48526;48.846;2.322;2023-05-28T04:44:13;19.50;;;17.00;;
62479;SDS011;48526;48.846;2.322;2023-05-28T04:46:40;18.75;;;15.25;;
62479;SDS011;48526;48.846;2.322;2023-05-28T04:49:08;18.50;;;16.50;;
62479;SDS011;48526;48.846;2.322;2023-05-28T04:51:39;23.25;;;17.75;;
62479;SDS011;48526;48.846;2.322;2023-05-28T04:54:05;21.00;;;14.75;;
62479;SDS011;48526;48.846;2.322;2023-05-28T04:56:31;24.25;;;20.00;;
62479;SDS011;48526;48.846;2.322;2023-05-28T04:58:56;22.50;;;17.00;;
62479;SDS011;48526;48.846;2.322;2023-05-28T05:01:22;23.25;;;17.00;;
62479;SDS011;48526;48.846;2.322;2023-05-28T05:03:51;19.25;;;17.50;;
62479;SDS011;48526;48.846;2.322;2023-05-28T05:06:17;15.50;;;15.50;;
62479;SDS011;48526;48.846;2.322;2023-05-28T05:08:42;23.00;;;17.75;;
62479;SDS011;48526;48.846;2.322;2023-05-28T05:11:07;20.50;;;17.00;;
62479;SDS011;48526;48.846;2.322;2023-05-28T05:13:33;27.75;;;20.25;;
62479;SDS011;48526;48.846;2.322;2023-05-28T05:15:59;19.25;;;15.25;;
62479;SDS011;48526;48.846;2.322;2023-05-28T05:18:24;22.25;;;19.75;;
62479;SDS011;48526;48.846;2.322;2023-05-28T05:20:49;26.75;;;20.75;;
62479;SDS011;48526;48.846;2.322;2023-05-28T05:23:15;20.50;;;17.00;;
62479;SDS011;48526;48.846;2.322;2023-05-28T05:25:40;23.25;;;19.00;;
62479;SDS011;48526;48.846;2.322;2023-05-28T05:28:06;20.00;;;18.25;;
62479;SDS011;48526;48.846;2.322;2023-05-28T05:30:31;24.75;;;18.25;;
62479;SDS011;48526;48.846;2.322;2023-05-28T05:32:56;19.75;;;17.00;;
62479;SDS011;48526;48.846;2.322;2023-05-28T05:35:22;17.25;;;15.00;;
62479;SDS011;48526;48.846;2.322;2023-05-28T05:37:48;21.50;;;18.00;;
62479;SDS011;48526;48.846;2.322;2023-05-28T05:40:13;21.00;;;17.75;;
62479;SDS011;48526;48.846;2.322;2023-05-28T05:42:39;20.25;;;18.25;;
62479;SDS011;48526;48.846;2.322;2023-05-28T05:45:05;22.25;;;19.25;;
62479;SDS011;48526;48.846;2.322;2023-05-28T05:47:31;20.00;;;16.50;;
62479;SDS011;48526;48.846;2.322;2023-05-28T05:49:56;28.75;;;19.50;;
62479;SDS011;48526;48.846;2.322;2023-05-28T05:52:22;24.75;;;18.50;;
62479;SDS011;48526;48.846;2.322;2023-05-28T05:54:48;24.00;;;20.50;;
62479;SDS011;48526;48.846;2.322;2023-05-28T05:57:13;21.75;;;17.75;;
62479;SDS011;48526;48.846;2.322;2023-05-28T05:59:39;20.50;;;17.25;;
62479;SDS011;48526;48.846;2.322;2023-05-28T06:02:05;25.25;;;19.00;;
62479;SDS011;48526;48.846;2.322;2023-05-28T06:04:31;20.00;;;18.00;;
62479;SDS011;48526;48.846;2.322;2023-05-28T06:07:01;21.25;;;17.00;;
62479;SDS011;48526;48.846;2.322;2023-05-28T06:09:29;17.50;;;15.00;;
62479;SDS011;48526;48.846;2.322;2023-05-28T06:11:54;21.25;;;17.25;;
62479;SDS011;48526;48.846;2.322;2023-05-28T06:14:20;18.75;;;16.75;;
62479;SDS011;48526;48.846;2.322;2023-05-28T06:16:46;19.00;;;17.50;;
62479;SDS011;48526;48.846;2.322;2023-05-28T06:19:11;29.25;;;20.25;;
62479;SDS011;48526;48.846;2.322;2023-05-28T06:21:36;20.50;;;14.25;;
62479;SDS011;48526;48.846;2.322;2023-05-28T06:24:02;17.00;;;16.50;;
62479;SDS011;48526;48.846;2.322;2023-05-28T06:26:28;20.75;;;18.00;;
62479;SDS011;48526;48.846;2.322;2023-05-28T06:28:54;15.50;;;14.50;;
62479;SDS011;48526;48.846;2.322;2023-05-28T06:31:19;21.75;;;20.50;;
62479;SDS011;48526;48.846;2.322;2023-05-28T06:33:44;23.75;;;19.00;;
62479;SDS011;48526;48.846;2.322;2023-05-28T06:36:11;21.25;;;18.50;;
62479;SDS011;48526;48.846;2.322;2023-05-28T06:38:37;20.50;;;19.25;;
62479;SDS011;48526;48.846;2.322;2023-05-28T06:41:02;22.25;;;17.25;;
62479;SDS011;48526;48.846;2.322;2023-05-28T06:43:28;20.25;;;16.50;;
62479;SDS011;48526;48.846;2.322;2023-05-28T06:45:53;19.50;;;17.75;;
62479;SDS011;48526;48.846;2.322;2023-05-28T06:48:22;22.75;;;19.75;;
62479;SDS011;48526;48.846;2.322;2023-05-28T06:50:48;21.00;;;19.75;;
62479;SDS011;48526;48.846;2.322;2023-05-28T06:53:13;23.50;;;17.50;;
62479;SDS011;48526;48.846;2.322;2023-05-28T06:55:39;22.75;;;19.50;;
62479;SDS011;48526;48.846;2.322;2023-05-28T06:58:04;24.00;;;20.25;;
62479;SDS011;48526;48.846;2.322;2023-05-28T07:00:30;21.00;;;19.25;;
62479;SDS011;48526;48.846;2.322;2023-05-28T07:02:56;19.25;;;17.50;;
62479;SDS011;48526;48.846;2.322;2023-05-28T07:05:21;22.75;;;19.75;;
62479;SDS011;48526;48.846;2.322;2023-05-28T07:07:46;16.00;;;11.50;;
62479;SDS011;48526;48.846;2.322;2023-05-28T07:10:12;17.50;;;13.75;;
62479;SDS011;48526;48.846;2.322;2023-05-28T07:12:37;24.50;;;18.50;;
62479;SDS011;48526;48.846;2.322;2023-05-28T07:15:03;21.50;;;18.75;;
62479;SDS011;48526;48.846;2.322;2023-05-28T07:17:29;19.25;;;18.75;;
62479;SDS011;48526;48.846;2.322;2023-05-28T07:19:54;20.50;;;16.50;;
62479;SDS011;48526;48.846;2.322;2023-05-28T07:22:23;20.00;;;16.00;;
62479;SDS011;48526;48.846;2.322;2023-05-28T07:24:50;22.00;;;19.25;;
62479;SDS011;48526;48.846;2.322;2023-05-28T07:27:15;19.50;;;17.75;;
62479;SDS011;48526;48.846;2.322;2023-05-28T07:29:41;19.50;;;18.75;;
62479;SDS011;48526;48.846;2.322;2023-05-28T07:32:06;26.00;;;20.00;;
62479;SDS011;48526;48.846;2.322;2023-05-28T07:34:32;21.00;;;18.50;;
62479;SDS011;48526;48.846;2.322;2023-05-28T07:36:57;22.25;;;19.00;;
62479;SDS011;48526;48.846;2.322;2023-05-28T07:39:23;25.75;;;20.25;;
62479;SDS011;48526;48.846;2.322;2023-05-28T07:41:48;28.50;;;20.00;;
62479;SDS011;48526;48.846;2.322;2023-05-28T07:44:21;19.50;;;19.00;;
62479;SDS011;48526;48.846;2.322;2023-05-28T07:46:47;24.75;;;17.50;;
62479;SDS011;48526;48.846;2.322;2023-05-28T07:49:12;16.00;;;12.25;;
62479;SDS011;48526;48.846;2.322;2023-05-28T07:51:37;21.25;;;14.00;;
62479;SDS011;48526;48.846;2.322;2023-05-28T07:54:03;21.00;;;14.00;;
62479;SDS011;48526;48.846;2.322;2023-05-28T07:56:28;22.25;;;18.00;;
62479;SDS011;48526;48.846;2.322;2023-05-28T07:58:54;19.00;;;14.75;;
62479;SDS011;48526;48.846;2.322;2023-05-28T08:01:20;21.50;;;19.00;;
62479;SDS011;48526;48.846;2.322;2023-05-28T08:03:46;17.75;;;13.50;;
62479;SDS011;48526;48.846;2.322;2023-05-28T08:06:16;18.50;;;15.25;;
62479;SDS011;48526;48.846;2.322;2023-05-28T08:08:43;21.00;;;18.25;;
62479;SDS011;48526;48.846;2.322;2023-05-28T08:11:08;15.75;;;15.00;;
62479;SDS011;48526;48.846;2.322;2023-05-28T08:13:36;17.00;;;14.00;;
62479;SDS011;48526;48.846;2.322;2023-05-28T08:16:01;21.75;;;19.00;;
62479;SDS011;48526;48.846;2.322;2023-05-28T08:18:27;23.00;;;15.75;;
62479;SDS011;48526;48.846;2.322;2023-05-28T08:20:53;18.75;;;13.50;;
62479;SDS011;48526;48.846;2.322;2023-05-28T08:23:18;15.75;;;15.25;;
62479;SDS011;48526;48.846;2.322;2023-05-28T08:25:44;13.00;;;10.00;;
62479;SDS011;48526;48.846;2.322;2023-05-28T08:28:09;19.00;;;16.00;;
62479;SDS011;48526;48.846;2.322;2023-05-28T08:30:35;16.25;;;14.50;;
62479;SDS011;48526;48.846;2.322;2023-05-28T08:33:01;14.25;;;13.00;;
62479;SDS011;48526;48.846;2.322;2023-05-28T08:35:26;14.25;;;13.00;;
62479;SDS011;48526;48.846;2.322;2023-05-28T08:37:52;13.00;;;13.00;;
62479;SDS011;48526;48.846;2.322;2023-05-28T08:40:17;16.25;;;15.75;;
62479;SDS011;48526;48.846;2.322;2023-05-28T08:42:43;17.00;;;14.75;;
62479;SDS011;48526;48.846;2.322;2023-05-28T08:45:08;15.75;;;15.00;;
62479;SDS011;48526;48.846;2.322;2023-05-28T08:47:34;16.00;;;14.75;;
62479;SDS011;48526;48.846;2.322;2023-05-28T08:50:05;13.25;;;12.25;;
62479;SDS011;48526;48.846;2.322;2023-05-28T08:52:32;17.25;;;15.50;;
62479;SDS011;48526;48.846;2.322;2023-05-28T08:54:58;15.00;;;14.50;;
62479;SDS011;48526;48.846;2.322;2023-05-28T08:57:29;18.75;;;13.75;;
62479;SDS011;48526;48.846;2.322;2023-05-28T08:59:55;16.75;;;14.75;;
62479;SDS011;48526;48.846;2.322;2023-05-28T09:02:25;14.00;;;12.00;;
62479;SDS011;48526;48.846;2.322;2023-05-28T09:04:51;18.25;;;15.75;;
62479;SDS011;48526;48.846;2.322;2023-05-28T09:07:17;15.50;;;14.25;;
62479;SDS011;48526;48.846;2.322;2023-05-28T09:09:42;15.50;;;13.00;;
62479;SDS011;48526;48.846;2.322;2023-05-28T09:12:11;17.00;;;14.75;;
62479;SDS011;48526;48.846;2.322;2023-05-28T09:14:38;16.50;;;11.50;;
62479;SDS011;48526;48.846;2.322;2023-05-28T09:17:05;14.25;;;14.25;;
62479;SDS011;48526;48.846;2.322;2023-05-28T09:19:31;14.25;;;12.25;;
62479;SDS011;48526;48.846;2.322;2023-05-28T09:21:57;13.25;;;12.75;;
62479;SDS011;48526;48.846;2.322;2023-05-28T09:24:24;6.25;;;4.50;;
62479;SDS011;48526;48.846;2.322;2023-05-28T09:26:52;16.25;;;12.25;;
62479;SDS011;48526;48.846;2.322;2023-05-28T09:29:19;12.50;;;11.00;;
62479;SDS011;48526;48.846;2.322;2023-05-28T09:31:46;14.00;;;13.00;;
62479;SDS011;48526;48.846;2.322;2023-05-28T09:34:26;17.50;;;12.75;;
62479;SDS011;48526;48.846;2.322;2023-05-28T09:36:52;14.00;;;14.00;;
62479;SDS011;48526;48.846;2.322;2023-05-28T09:39:18;15.75;;;13.00;;
62479;SDS011;48526;48.846;2.322;2023-05-28T09:41:43;16.75;;;12.50;;
62479;SDS011;48526;48.846;2.322;2023-05-28T09:44:11;16.25;;;13.25;;
62479;SDS011;48526;48.846;2.322;2023-05-28T09:46:37;13.50;;;13.00;;
62479;SDS011;48526;48.846;2.322;2023-05-28T09:49:03;13.50;;;11.00;;
62479;SDS011;48526;48.846;2.322;2023-05-28T09:51:29;12.00;;;11.00;;
62479;SDS011;48526;48.846;2.322;2023-05-28T09:53:57;13.25;;;11.00;;
62479;SDS011;48526;48.846;2.322;2023-05-28T09:56:30;14.50;;;11.75;;
62479;SDS011;48526;48.846;2.322;2023-05-28T09:58:57;12.00;;;11.50;;
62479;SDS011;48526;48.846;2.322;2023-05-28T10:01:24;12.00;;;12.00;;
62479;SDS011;48526;48.846;2.322;2023-05-28T10:03:53;12.50;;;10.25;;
62479;SDS011;48526;48.846;2.322;2023-05-28T10:06:40;12.75;;;9.25;;
62479;SDS011;48526;48.846;2.322;2023-05-28T10:09:08;15.25;;;10.25;;
62479;SDS011;48526;48.846;2.322;2023-05-28T10:11:42;11.25;;;8.50;;
62479;SDS011;48526;48.846;2.322;2023-05-28T10:14:09;12.00;;;9.00;;
62479;SDS011;48526;48.846;2.322;2023-05-28T10:16:35;10.00;;;9.25;;
62479;SDS011;48526;48.846;2.322;2023-05-28T10:19:01;9.75;;;8.50;;
62479;SDS011;48526;48.846;2.322;2023-05-28T10:21:26;14.25;;;10.25;;
62479;SDS011;48526;48.846;2.322;2023-05-28T10:23:52;10.25;;;9.25;;
62479;SDS011;48526;48.846;2.322;2023-05-28T10:26:17;11.25;;;10.00;;
62479;SDS011;48526;48.846;2.322;2023-05-28T10:28:44;12.50;;;11.25;;
62479;SDS011;48526;48.846;2.322;2023-05-28T10:31:09;11.25;;;10.25;;
62479;SDS011;48526;48.846;2.322;2023-05-28T10:33:42;17.25;;;12.75;;
62479;SDS011;48526;48.846;2.322;2023-05-28T10:36:09;13.50;;;11.75;;
62479;SDS011;48526;48.846;2.322;2023-05-28T10:38:45;10.75;;;9.25;;
62479;SDS011;48526;48.846;2.322;2023-05-28T10:41:17;14.00;;;10.50;;
62479;SDS011;48526;48.846;2.322;2023-05-28T10:43:44;9.25;;;9.25;;
62479;SDS011;48526;48.846;2.322;2023-05-28T10:46:17;11.00;;;10.75;;
62479;SDS011;48526;48.846;2.322;2023-05-28T10:49:13;10.50;;;9.00;;
62479;SDS011;48526;48.846;2.322;2023-05-28T10:54:16;7.25;;;7.25;;
62479;SDS011;48526;48.846;2.322;2023-05-28T10:57:47;7.75;;;6.75;;
62479;SDS011;48526;48.846;2.322;2023-05-28T10:59:43;8.75;;;8.00;;
62479;SDS011;48526;48.846;2.322;2023-05-28T11:02:09;10.25;;;8.00;;
62479;SDS011;48526;48.846;2.322;2023-05-28T11:04:35;10.50;;;8.00;;
62479;SDS011;48526;48.846;2.322;2023-05-28T11:07:01;10.50;;;7.75;;
62479;SDS011;48526;48.846;2.322;2023-05-28T11:09:27;8.00;;;8.00;;
62479;SDS011;48526;48.846;2.322;2023-05-28T11:11:53;8.50;;;8.50;;
62479;SDS011;48526;48.846;2.322;2023-05-28T11:14:23;5.00;;;5.00;;
62479;SDS011;48526;48.846;2.322;2023-05-28T11:16:48;12.00;;;10.00;;
62479;SDS011;48526;48.846;2.322;2023-05-28T11:19:13;9.25;;;7.75;;
62479;SDS011;48526;48.846;2.322;2023-05-28T11:21:52;7.50;;;5.25;;
62479;SDS011;48526;48.846;2.322;2023-05-28T11:24:18;6.75;;;6.75;;
62479;SDS011;48526;48.846;2.322;2023-05-28T11:26:44;9.25;;;7.75;;
62479;SDS011;48526;48.846;2.322;2023-05-28T11:29:09;10.25;;;7.50;;
62479;SDS011;48526;48.846;2.322;2023-05-28T11:31:38;10.75;;;8.00;;
62479;SDS011;48526;48.846;2.322;2023-05-28T11:34:10;9.75;;;8.75;;
62479;SDS011;48526;48.846;2.322;2023-05-28T11:36:42;11.75;;;9.75;;
62479;SDS011;48526;48.846;2.322;2023-05-28T11:39:08;10.00;;;8.50;;
62479;SDS011;48526;48.846;2.322;2023-05-28T11:41:33;9.50;;;8.00;;
62479;SDS011;48526;48.846;2.322;2023-05-28T11:43:59;9.75;;;9.00;;
62479;SDS011;48526;48.846;2.322;2023-05-28T11:46:24;12.00;;;11.50;;
62479;SDS011;48526;48.846;2.322;2023-05-28T11:48:50;8.00;;;7.25;;
62479;SDS011;48526;48.846;2.322;2023-05-28T11:51:17;9.00;;;9.00;;
62479;SDS011;48526;48.846;2.322;2023-05-28T11:53:44;9.00;;;9.00;;
62479;SDS011;48526;48.846;2.322;2023-05-28T11:56:11;8.75;;;8.25;;
62479;SDS011;48526;48.846;2.322;2023-05-28T11:58:37;9.50;;;8.00;;
62479;SDS011;48526;48.846;2.322;2023-05-28T12:01:06;11.00;;;9.25;;
62479;SDS011;48526;48.846;2.322;2023-05-28T12:03:32;10.75;;;8.50;;
62479;SDS011;48526;48.846;2.322;2023-05-28T12:05:58;10.50;;;9.00;;
62479;SDS011;48526;48.846;2.322;2023-05-28T12:08:25;9.00;;;8.75;;
62479;SDS011;48526;48.846;2.322;2023-05-28T12:10:51;10.00;;;9.50;;
62479;SDS011;48526;48.846;2.322;2023-05-28T12:13:16;9.00;;;7.25;;
62479;SDS011;48526;48.846;2.322;2023-05-28T12:15:42;10.50;;;9.00;;
62479;SDS011;48526;48.846;2.322;2023-05-28T12:18:08;10.25;;;8.50;;
62479;SDS011;48526;48.846;2.322;2023-05-28T12:20:37;12.00;;;9.00;;
62479;SDS011;48526;48.846;2.322;2023-05-28T12:23:06;9.00;;;9.00;;
62479;SDS011;48526;48.846;2.322;2023-05-28T12:25:50;10.50;;;9.25;;
62479;SDS011;48526;48.846;2.322;2023-05-28T12:28:17;11.00;;;9.00;;
62479;SDS011;48526;48.846;2.322;2023-05-28T12:30:50;9.50;;;9.50;;
62479;SDS011;48526;48.846;2.322;2023-05-28T12:33:18;8.50;;;7.00;;
62479;SDS011;48526;48.846;2.322;2023-05-28T12:35:47;9.50;;;8.00;;
62479;SDS011;48526;48.846;2.322;2023-05-28T12:38:13;12.25;;;8.50;;
62479;SDS011;48526;48.846;2.322;2023-05-28T12:40:38;7.50;;;6.25;;
62479;SDS011;48526;48.846;2.322;2023-05-28T12:43:04;9.75;;;7.00;;
62479;SDS011;48526;48.846;2.322;2023-05-28T12:45:29;8.00;;;8.00;;
62479;SDS011;48526;48.846;2.322;2023-05-28T12:47:55;9.50;;;8.50;;
62479;SDS011;48526;48.846;2.322;2023-05-28T12:50:20;7.25;;;7.25;;
62479;SDS011;48526;48.846;2.322;2023-05-28T12:52:48;8.50;;;7.25;;
62479;SDS011;48526;48.846;2.322;2023-05-28T12:55:14;9.25;;;8.25;;
62479;SDS011;48526;48.846;2.322;2023-05-28T12:57:39;8.50;;;7.00;;
62479;SDS011;48526;48.846;2.322;2023-05-28T13:00:05;10.00;;;7.00;;
62479;SDS011;48526;48.846;2.322;2023-05-28T13:02:33;9.50;;;8.00;;
62479;SDS011;48526;48.846;2.322;2023-05-28T13:04:59;9.00;;;6.50;;
62479;SDS011;48526;48.846;2.322;2023-05-28T13:07:25;10.25;;;9.25;;
62479;SDS011;48526;48.846;2.322;2023-05-28T13:09:50;12.00;;;8.25;;
62479;SDS011;48526;48.846;2.322;2023-05-28T13:12:15;7.75;;;6.50;;
62479;SDS011;48526;48.846;2.322;2023-05-28T13:14:41;10.50;;;7.75;;
62479;SDS011;48526;48.846;2.322;2023-05-28T13:17:06;10.75;;;7.25;;
62479;SDS011;48526;48.846;2.322;2023-05-28T13:19:32;8.00;;;7.25;;
62479;SDS011;48526;48.846;2.322;2023-05-28T13:21:57;9.75;;;7.00;;
62479;SDS011;48526;48.846;2.322;2023-05-28T13:24:24;9.00;;;6.50;;
62479;SDS011;48526;48.846;2.322;2023-05-28T13:26:50;8.50;;;8.50;;
62479;SDS011;48526;48.846;2.322;2023-05-28T13:29:15;8.50;;;7.75;;
62479;SDS011;48526;48.846;2.322;2023-05-28T13:31:41;7.25;;;5.75;;
62479;SDS011;48526;48.846;2.322;2023-05-28T13:34:06;9.50;;;9.25;;
62479;SDS011;48526;48.846;2.322;2023-05-28T13:36:31;10.00;;;7.75;;
62479;SDS011;48526;48.846;2.322;2023-05-28T13:38:57;9.00;;;8.00;;
62479;SDS011;48526;48.846;2.322;2023-05-28T13:41:22;9.50;;;8.25;;
62479;SDS011;48526;48.846;2.322;2023-05-28T13:43:52;8.25;;;8.25;;
62479;SDS011;48526;48.846;2.322;2023-05-28T13:46:21;8.25;;;7.75;;
62479;SDS011;48526;48.846;2.322;2023-05-28T13:48:47;10.75;;;10.00;;
62479;SDS011;48526;48.846;2.322;2023-05-28T13:51:12;8.25;;;8.00;;
62479;SDS011;48526;48.846;2.322;2023-05-28T13:53:38;10.25;;;8.25;;
62479;SDS011;48526;48.846;2.322;2023-05-28T13:56:03;9.00;;;8.00;;
62479;SDS011;48526;48.846;2.322;2023-05-28T13:58:29;9.25;;;8.25;;
62479;SDS011;48526;48.846;2.322;2023-05-28T14:00:54;6.75;;;6.75;;
62479;SDS011;48526;48.846;2.322;2023-05-28T14:03:20;9.75;;;6.75;;
62479;SDS011;48526;48.846;2.322;2023-05-28T14:05:46;10.25;;;7.00;;
62479;SDS011;48526;48.846;2.322;2023-05-28T14:08:11;8.00;;;7.75;;
62479;SDS011;48526;48.846;2.322;2023-05-28T14:10:37;7.75;;;6.75;;
62479;SDS011;48526;48.846;2.322;2023-05-28T14:13:02;7.00;;;7.00;;
62479;SDS011;48526;48.846;2.322;2023-05-28T14:15:28;9.25;;;7.00;;
62479;SDS011;48526;48.846;2.322;2023-05-28T14:17:53;8.00;;;6.75;;
62479;SDS011;48526;48.846;2.322;2023-05-28T14:20:19;8.25;;;7.00;;
62479;SDS011;48526;48.846;2.322;2023-05-28T14:22:45;8.25;;;8.00;;
62479;SDS011;48526;48.846;2.322;2023-05-28T14:25:10;8.25;;;7.50;;
62479;SDS011;48526;48.846;2.322;2023-05-28T14:27:37;8.25;;;7.25;;